Time;durP1;ratioP1;P1;durP2;ratioP2;P2;SDS_P1;SDS_P2;PMS_P1;PMS_P2;Temp;Humidity;BMP_temperature;BMP_pressure;BME280_temperature;BME280_humidity;BME280_pressure;Samples;Min_cycle;Max_cycle;Signal;HPM_P1;HPM_P2
2021/07/23 00:01:58;;;;;;;11.07;9.02;;;538.00;2227.20;;;;;;5037524;28;20025;-77
2021/07/23 00:04:27;;;;;;;12.13;8.63;;;537.70;2252.80;;;;;;5037480;28;20033;-76
2021/07/23 00:06:56;;;;;;;12.57;8.40;;;537.90;2252.80;;;;;;5037009;28;20109;-77
2021/07/23 00:09:25;;;;;;;16.13;8.70;;;537.90;2227.20;;;;;;5038534;28;20018;-76
2021/07/23 00:11:51;;;;;;;13.82;8.68;;;537.80;2227.20;;;;;;5039190;28;20083;-76
2021/07/23 00:14:17;;;;;;;14.43;8.85;;;537.70;2252.80;;;;;;5037254;28;20366;-77
2021/07/23 00:17:03;;;;;;;12.00;7.93;;;537.70;2252.80;;;;;;5037883;28;20044;-77
2021/07/23 00:19:29;;;;;;;12.15;8.60;;;537.60;2252.80;;;;;;5036026;28;20041;-77
2021/07/23 00:21:57;;;;;;;16.23;9.55;;;537.60;2252.80;;;;;;5035372;28;20071;-76
2021/07/23 00:24:23;;;;;;;10.73;8.02;;;537.60;2278.40;;;;;;5036222;28;20045;-76
2021/07/23 00:26:51;;;;;;;11.70;8.32;;;537.60;2252.80;;;;;;5036117;28;20051;-78
2021/07/23 00:29:16;;;;;;;11.77;8.65;;;537.60;2252.80;;;;;;5037993;28;20037;-76
2021/07/23 00:31:46;;;;;;;13.60;8.20;;;537.60;2252.80;;;;;;5037819;28;20052;-76
2021/07/23 00:34:16;;;;;;;16.58;9.27;;;537.60;2278.40;;;;;;5037669;28;20028;-75
2021/07/23 00:36:45;;;;;;;13.75;9.05;;;537.60;2252.80;;;;;;5042028;28;20032;-74
2021/07/23 00:39:12;;;;;;;18.27;9.98;;;512.90;2252.80;;;;;;5041958;28;20010;-76
2021/07/23 00:41:37;;;;;;;13.90;8.93;;;512.90;2252.80;;;;;;5039642;28;20026;-75
2021/07/23 00:44:03;;;;;;;15.00;8.60;;;512.90;2278.40;;;;;;5035492;28;20187;-75
2021/07/23 00:46:30;;;;;;;11.43;8.63;;;512.90;2278.40;;;;;;5035528;28;20022;-76
2021/07/23 00:48:57;;;;;;;14.15;8.73;;;512.90;2278.40;;;;;;5036801;28;20021;-75
2021/07/23 00:51:23;;;;;;;13.32;8.25;;;512.90;2278.40;;;;;;5036633;28;20022;-75
2021/07/23 00:53:50;;;;;;;12.40;8.73;;;512.90;2278.40;;;;;;5036709;28;20028;-75
2021/07/23 00:56:17;;;;;;;11.77;9.73;;;512.90;2278.40;;;;;;5036862;28;20022;-76
2021/07/23 00:58:43;;;;;;;14.38;9.43;;;512.90;2304.00;;;;;;5035955;28;20421;-75
2021/07/23 01:01:09;;;;;;;12.45;9.02;;;512.90;2278.40;;;;;;5035441;28;20076;-77
2021/07/23 01:03:36;;;;;;;11.40;9.05;;;512.90;2304.00;;;;;;5034832;28;20112;-76
2021/07/23 01:06:03;;;;;;;12.43;8.73;;;512.80;2304.00;;;;;;5035664;28;20033;-76
2021/07/23 01:08:28;;;;;;;13.77;9.15;;;512.80;2304.00;;;;;;5035816;28;20104;-75
2021/07/23 01:10:55;;;;;;;12.13;8.27;;;512.70;2304.00;;;;;;5035927;28;20060;-75
2021/07/23 01:13:20;;;;;;;10.63;8.23;;;512.70;2329.60;;;;;;5036872;28;20037;-75
2021/07/23 01:15:46;;;;;;;11.48;8.75;;;512.60;2329.60;;;;;;5036408;28;20033;-75
2021/07/23 01:18:13;;;;;;;12.93;9.65;;;512.60;2329.60;;;;;;5034158;28;20018;-75
2021/07/23 01:20:40;;;;;;;12.65;10.10;;;512.50;2329.60;;;;;;5034407;28;20472;-76
2021/07/23 01:23:07;;;;;;;13.73;9.27;;;512.50;2355.20;;;;;;5033891;28;20029;-76
2021/07/23 01:25:35;;;;;;;10.15;9.02;;;512.50;2355.20;;;;;;5033879;28;20049;-76
2021/07/23 01:28:01;;;;;;;11.23;8.45;;;512.50;2355.20;;;;;;5033833;28;20543;-75
2021/07/23 01:30:27;;;;;;;11.93;9.20;;;512.40;2380.80;;;;;;5033619;28;20030;-76
2021/07/23 01:32:53;;;;;;;12.93;9.23;;;512.40;2380.80;;;;;;5033451;28;20120;-75
2021/07/23 01:35:20;;;;;;;10.45;8.60;;;512.30;2380.80;;;;;;5033512;28;20028;-77
2021/07/23 01:37:47;;;;;;;10.38;8.65;;;512.30;2380.80;;;;;;5033304;28;20025;-75
2021/07/23 01:40:14;;;;;;;12.95;9.35;;;512.30;2380.80;;;;;;5033999;28;20030;-76
2021/07/23 01:42:42;;;;;;;11.57;9.77;;;512.30;2380.80;;;;;;5036819;28;20499;-76
2021/07/23 01:45:08;;;;;;;12.38;9.00;;;512.30;2380.80;;;;;;5037357;28;20416;-76
2021/07/23 01:47:34;;;;;;;12.98;8.73;;;512.30;2380.80;;;;;;5037465;28;20052;-75
2021/07/23 01:50:00;;;;;;;14.85;8.98;;;512.30;2380.80;;;;;;5037540;28;20030;-75
2021/07/23 01:52:26;;;;;;;16.25;8.85;;;512.30;2380.80;;;;;;5037368;28;20018;-75
2021/07/23 01:54:52;;;;;;;13.27;9.27;;;512.30;2380.80;;;;;;5037497;28;20474;-76
2021/07/23 01:57:18;;;;;;;10.15;8.77;;;512.30;2380.80;;;;;;5036957;28;20119;-75
2021/07/23 01:59:44;;;;;;;12.60;8.70;;;512.30;2380.80;;;;;;5037235;28;20036;-74
2021/07/23 02:02:10;;;;;;;15.90;9.00;;;512.20;2380.80;;;;;;5037017;28;20021;-76
2021/07/23 02:04:36;;;;;;;10.73;8.20;;;512.20;2380.80;;;;;;5036768;28;20037;-75
2021/07/23 02:07:02;;;;;;;14.50;8.63;;;512.10;2380.80;;;;;;5036754;28;20097;-75
2021/07/23 02:09:27;;;;;;;12.82;8.27;;;512.10;2380.80;;;;;;5037225;28;20061;-76
2021/07/23 02:11:53;;;;;;;11.98;7.88;;;512.20;2380.80;;;;;;5036739;28;20028;-77
2021/07/23 02:14:19;;;;;;;13.30;8.70;;;512.20;2380.80;;;;;;5036753;28;20072;-76
2021/07/23 02:16:45;;;;;;;10.18;8.30;;;512.10;2380.80;;;;;;5036791;28;20039;-76
2021/07/23 02:19:10;;;;;;;9.95;7.72;;;512.10;2380.80;;;;;;5036785;28;20053;-76
2021/07/23 02:21:37;;;;;;;10.88;8.13;;;512.10;2355.20;;;;;;5036598;28;20055;-76
2021/07/23 02:24:04;;;;;;;10.63;8.10;;;512.20;2355.20;;;;;;5036248;28;20085;-76
2021/07/23 02:26:30;;;;;;;11.75;8.52;;;512.20;2355.20;;;;;;5036770;28;20468;-76
2021/07/23 02:28:59;;;;;;;11.73;8.13;;;512.20;2355.20;;;;;;5036519;28;20029;-76
2021/07/23 02:31:25;;;;;;;11.90;9.10;;;512.20;2355.20;;;;;;5036672;28;20055;-76
2021/07/23 02:33:52;;;;;;;12.50;8.68;;;512.20;2380.80;;;;;;5036487;28;20109;-76
2021/07/23 02:36:18;;;;;;;11.20;9.90;;;512.10;2380.80;;;;;;5036612;28;20057;-77
2021/07/23 02:38:44;;;;;;;12.57;9.02;;;512.10;2355.20;;;;;;5036347;28;20021;-76
2021/07/23 02:41:10;;;;;;;13.45;8.27;;;512.10;2355.20;;;;;;5036248;28;20029;-76
2021/07/23 02:43:36;;;;;;;16.73;8.48;;;512.10;2355.20;;;;;;5036356;28;20025;-76
2021/07/23 02:46:01;;;;;;;12.02;8.45;;;512.20;2380.80;;;;;;5036972;28;20033;-76
2021/07/23 02:48:27;;;;;;;14.50;8.95;;;512.10;2380.80;;;;;;5039145;28;20029;-76
2021/07/23 02:50:54;;;;;;;12.70;8.43;;;512.10;2380.80;;;;;;5039147;28;20025;-76
2021/07/23 02:53:20;;;;;;;11.80;9.02;;;512.10;2380.80;;;;;;5037871;28;20473;-76
2021/07/23 02:55:50;;;;;;;11.02;8.80;;;512.10;2380.80;;;;;;5037819;28;20028;-75
2021/07/23 02:58:16;;;;;;;11.00;9.18;;;512.10;2380.80;;;;;;5038332;28;20039;-76
2021/07/23 03:00:42;;;;;;;14.98;9.90;;;512.10;2380.80;;;;;;5038571;28;20092;-76
2021/07/23 03:03:07;;;;;;;13.32;8.90;;;512.10;2380.80;;;;;;5038406;28;20029;-75
2021/07/23 03:05:33;;;;;;;15.13;9.98;;;512.00;2380.80;;;;;;5037482;28;20034;-76
2021/07/23 03:07:59;;;;;;;11.73;9.23;;;512.00;2380.80;;;;;;5035755;28;20028;-76
2021/07/23 03:10:25;;;;;;;15.30;9.10;;;512.00;2380.80;;;;;;5036883;28;20358;-76
2021/07/23 03:12:52;;;;;;;17.55;9.10;;;487.30;2380.80;;;;;;5035992;28;20025;-77
2021/07/23 03:15:17;;;;;;;12.75;9.52;;;487.30;2380.80;;;;;;5035967;28;20025;-76
2021/07/23 03:17:43;;;;;;;14.80;8.38;;;487.30;2380.80;;;;;;5035576;28;20025;-76
2021/07/23 03:20:09;;;;;;;10.98;8.70;;;487.20;2380.80;;;;;;5034806;28;20037;-76
2021/07/23 03:22:35;;;;;;;11.05;8.57;;;487.20;2380.80;;;;;;5036335;28;20588;-76
2021/07/23 03:25:01;;;;;;;14.27;9.02;;;487.20;2380.80;;;;;;5035150;28;20113;-76
2021/07/23 03:27:27;;;;;;;10.27;9.13;;;487.20;2380.80;;;;;;5035587;28;20033;-76
2021/07/23 03:29:54;;;;;;;11.68;8.70;;;487.20;2380.80;;;;;;5035491;28;20113;-77
2021/07/23 03:32:20;;;;;;;15.07;9.43;;;487.20;2380.80;;;;;;5035389;28;20021;-76
2021/07/23 03:34:45;;;;;;;15.10;8.75;;;487.10;2380.80;;;;;;5035478;28;20025;-76
2021/07/23 03:37:11;;;;;;;13.07;9.48;;;487.10;2380.80;;;;;;5036439;28;20052;-76
2021/07/23 03:39:37;;;;;;;11.77;8.70;;;487.10;2380.80;;;;;;5035316;28;20022;-76
2021/07/23 03:42:03;;;;;;;11.77;9.15;;;487.10;2380.80;;;;;;5035132;28;20177;-76
2021/07/23 03:44:29;;;;;;;12.85;9.82;;;487.00;2380.80;;;;;;5035218;28;20034;-77
2021/07/23 03:46:54;;;;;;;11.35;9.32;;;487.00;2380.80;;;;;;5035034;28;20032;-76
2021/07/23 03:49:20;;;;;;;13.32;9.02;;;486.90;2380.80;;;;;;5034467;28;20033;-77
2021/07/23 03:51:46;;;;;;;13.02;10.32;;;486.80;2380.80;;;;;;5034235;28;20021;-76
2021/07/23 03:54:12;;;;;;;12.15;8.48;;;486.90;2380.80;;;;;;5035029;28;20477;-77
2021/07/23 03:56:38;;;;;;;17.90;9.23;;;487.00;2380.80;;;;;;5036633;28;20026;-77
2021/07/23 03:59:05;;;;;;;12.45;8.90;;;487.00;2380.80;;;;;;5051523;28;20041;-76
2021/07/23 04:01:31;;;;;;;15.15;9.55;;;487.00;2380.80;;;;;;5050502;28;20021;-75
2021/07/23 04:03:56;;;;;;;13.35;8.82;;;487.00;2380.80;;;;;;5049456;28;20026;-75
2021/07/23 04:06:22;;;;;;;12.90;9.77;;;487.00;2380.80;;;;;;5047833;28;20434;-77
2021/07/23 04:08:48;;;;;;;11.75;9.18;;;487.00;2380.80;;;;;;5040520;28;20025;-77
2021/07/23 04:11:15;;;;;;;14.70;9.45;;;487.10;2380.80;;;;;;5049977;28;20033;-75
2021/07/23 04:13:41;;;;;;;15.05;10.07;;;487.10;2380.80;;;;;;5051779;28;20049;-77
2021/07/23 04:16:07;;;;;;;12.32;9.25;;;487.10;2380.80;;;;;;5052777;28;20048;-77
2021/07/23 04:18:33;;;;;;;12.80;8.80;;;487.10;2380.80;;;;;;5051121;28;20090;-77
2021/07/23 04:21:03;;;;;;;13.20;10.00;;;487.10;2380.80;;;;;;5039817;28;20051;-75
2021/07/23 04:23:28;;;;;;;14.93;9.80;;;487.20;2380.80;;;;;;5033304;28;20038;-76
2021/07/23 04:25:54;;;;;;;14.02;10.73;;;487.10;2380.80;;;;;;5034180;28;20071;-75
2021/07/23 04:28:20;;;;;;;12.90;9.35;;;487.10;2380.80;;;;;;5034093;28;20026;-76
2021/07/23 04:30:45;;;;;;;11.77;9.10;;;487.10;2380.80;;;;;;5033461;28;20037;-75
2021/07/23 04:33:11;;;;;;;15.27;9.07;;;487.10;2380.80;;;;;;5034084;28;20359;-75
2021/07/23 04:35:37;;;;;;;13.27;9.45;;;487.10;2380.80;;;;;;5032605;28;20111;-75
2021/07/23 04:38:03;;;;;;;12.90;9.57;;;487.10;2380.80;;;;;;5034141;28;20458;-76
2021/07/23 04:40:28;;;;;;;12.85;9.25;;;487.20;2380.80;;;;;;5034075;28;20025;-75
2021/07/23 04:42:54;;;;;;;12.70;9.02;;;487.20;2380.80;;;;;;5034065;28;20037;-75
2021/07/23 04:45:20;;;;;;;12.40;9.77;;;487.30;2380.80;;;;;;5033717;28;20033;-76
2021/07/23 04:47:45;;;;;;;15.65;9.27;;;487.30;2380.80;;;;;;5034189;28;20351;-76
2021/07/23 04:50:11;;;;;;;16.35;10.88;;;487.30;2380.80;;;;;;5038133;28;20041;-75
2021/07/23 04:52:37;;;;;;;14.65;10.35;;;487.30;2380.80;;;;;;5033862;28;20029;-77
2021/07/23 04:55:07;;;;;;;13.73;9.35;;;487.30;2380.80;;;;;;5033843;28;20021;-77
2021/07/23 04:57:41;;;;;;;11.60;9.38;;;512.00;2380.80;;;;;;5033878;28;20029;-76
2021/07/23 05:00:08;;;;;;;16.38;10.07;;;512.00;2380.80;;;;;;5035595;28;20096;-74
2021/07/23 05:02:34;;;;;;;18.25;11.90;;;512.10;2380.80;;;;;;5035060;28;20029;-77
2021/07/23 05:04:59;;;;;;;18.75;11.70;;;512.10;2380.80;;;;;;5033697;28;20504;-76
2021/07/23 05:07:25;;;;;;;18.70;13.10;;;487.30;2380.80;;;;;;5033510;28;20088;-76
2021/07/23 05:09:51;;;;;;;17.45;13.20;;;487.20;2380.80;;;;;;5034159;28;20030;-76
2021/07/23 05:12:16;;;;;;;18.98;11.80;;;487.00;2380.80;;;;;;5033315;28;20084;-76
2021/07/23 05:14:43;;;;;;;21.42;13.18;;;487.00;2380.80;;;;;;5033332;28;20022;-78
2021/07/23 05:17:09;;;;;;;21.75;13.48;;;487.00;2380.80;;;;;;5033041;28;20022;-78
2021/07/23 05:19:36;;;;;;;17.75;12.80;;;487.00;2380.80;;;;;;5033864;28;20022;-78
2021/07/23 05:22:04;;;;;;;20.02;13.20;;;487.00;2380.80;;;;;;5033759;28;20093;-74
2021/07/23 05:24:31;;;;;;;17.33;13.00;;;487.00;2380.80;;;;;;5032170;28;20037;-77
2021/07/23 05:26:58;;;;;;;16.48;13.23;;;487.10;2380.80;;;;;;5037465;28;20520;-77
2021/07/23 05:29:24;;;;;;;18.20;14.05;;;487.10;2380.80;;;;;;5033275;28;20088;-78
2021/07/23 05:31:49;;;;;;;15.98;12.63;;;487.20;2380.80;;;;;;5033444;28;20030;-77
2021/07/23 05:34:15;;;;;;;18.02;13.30;;;487.30;2380.80;;;;;;5033537;28;20469;-77
2021/07/23 05:36:41;;;;;;;13.75;10.98;;;512.10;2380.80;;;;;;5033271;28;20529;-77
2021/07/23 05:39:09;;;;;;;17.67;13.45;;;512.10;2380.80;;;;;;5033231;28;20032;-77
2021/07/23 05:41:35;;;;;;;18.48;13.70;;;512.20;2380.80;;;;;;5033419;28;20025;-78
2021/07/23 05:44:01;;;;;;;18.30;13.15;;;512.30;2380.80;;;;;;5033217;28;20047;-77
2021/07/23 05:46:27;;;;;;;22.42;12.65;;;512.40;2380.80;;;;;;5033787;28;20029;-76
2021/07/23 05:48:53;;;;;;;13.07;11.32;;;512.40;2380.80;;;;;;5031844;28;20070;-78
2021/07/23 05:51:18;;;;;;;18.33;11.43;;;512.60;2380.80;;;;;;5033353;28;20105;-76
2021/07/23 05:53:44;;;;;;;17.50;13.15;;;512.70;2380.80;;;;;;5032317;28;20033;-77
2021/07/23 05:56:10;;;;;;;16.90;13.13;;;512.80;2380.80;;;;;;5033371;28;20129;-77
2021/07/23 05:58:36;;;;;;;15.63;11.20;;;512.90;2380.80;;;;;;5033495;28;20381;-78
2021/07/23 06:01:07;;;;;;;17.38;12.07;;;537.60;2406.40;;;;;;5032991;28;20021;-78
2021/07/23 06:03:34;;;;;;;15.57;11.95;;;537.70;2406.40;;;;;;5033033;28;20500;-76
2021/07/23 06:06:01;;;;;;;17.08;11.52;;;537.90;2406.40;;;;;;5032040;28;20033;-78
2021/07/23 06:08:27;;;;;;;17.45;11.45;;;538.00;2406.40;;;;;;5040435;28;20021;-77
2021/07/23 06:10:53;;;;;;;17.35;12.30;;;538.10;2406.40;;;;;;5033493;28;20037;-77
2021/07/23 06:13:18;;;;;;;16.13;11.32;;;538.20;2380.80;;;;;;5032419;28;20030;-76
2021/07/23 06:15:44;;;;;;;14.00;11.48;;;538.40;2329.60;;;;;;5033916;28;20026;-77
2021/07/23 06:18:10;;;;;;;17.27;11.38;;;538.40;2329.60;;;;;;5033705;28;20108;-78
2021/07/23 06:20:36;;;;;;;15.82;11.90;;;538.50;2329.60;;;;;;5034378;28;20373;-76
2021/07/23 06:23:01;;;;;;;16.73;10.90;;;563.20;2355.20;;;;;;5035516;28;20025;-75
2021/07/23 06:25:27;;;;;;;15.88;10.80;;;563.30;2304.00;;;;;;5032793;28;20405;-78
2021/07/23 06:27:53;;;;;;;17.85;11.43;;;563.50;2278.40;;;;;;5034785;28;20100;-77
2021/07/23 06:30:19;;;;;;;17.33;11.50;;;563.60;2252.80;;;;;;5036536;28;20037;-76
2021/07/23 06:32:45;;;;;;;14.43;11.23;;;563.60;2252.80;;;;;;5051502;28;20026;-76
2021/07/23 06:35:11;;;;;;;20.00;11.88;;;563.70;2227.20;;;;;;5037380;28;20547;-77
2021/07/23 06:37:37;;;;;;;17.35;11.43;;;563.90;2227.20;;;;;;5034543;28;20022;-76
2021/07/23 06:40:03;;;;;;;18.80;11.02;;;563.90;2227.20;;;;;;5036448;28;20079;-79
2021/07/23 06:42:29;;;;;;;15.07;10.85;;;564.00;2201.60;;;;;;5036289;28;20017;-76
2021/07/23 06:44:55;;;;;;;19.15;10.73;;;564.10;2176.00;;;;;;5034258;28;20120;-77
2021/07/23 06:47:21;;;;;;;15.18;10.73;;;588.80;2176.00;;;;;;5035692;28;20029;-77
2021/07/23 06:49:56;;;;;;;16.83;10.75;;;589.00;2176.00;;;;;;5035728;28;20025;-77
2021/07/23 06:52:22;;;;;;;14.13;10.05;;;589.10;2150.40;;;;;;5051308;28;20045;-77
2021/07/23 06:54:48;;;;;;;15.77;10.20;;;589.00;2124.80;;;;;;5033814;28;20068;-77
2021/07/23 06:57:14;;;;;;;14.15;10.18;;;589.20;2150.40;;;;;;5036047;28;20022;-77
2021/07/23 06:59:40;;;;;;;15.05;10.32;;;589.30;2124.80;;;;;;5050619;28;20084;-76
2021/07/23 07:02:06;;;;;;;13.15;10.23;;;589.40;2099.20;;;;;;5036083;28;20052;-76
2021/07/23 07:04:32;;;;;;;15.13;9.60;;;589.50;2099.20;;;;;;5038366;28;20034;-78
2021/07/23 07:06:59;;;;;;;14.02;9.93;;;589.50;2073.60;;;;;;5033925;28;20041;-78
2021/07/23 07:09:26;;;;;;;15.70;10.30;;;589.70;2073.60;;;;;;5037556;28;20024;-77
2021/07/23 07:11:55;;;;;;;17.92;10.27;;;614.40;2099.20;;;;;;5041570;28;20470;-80
2021/07/23 07:14:22;;;;;;;11.93;9.20;;;614.50;2073.60;;;;;;5041098;28;20121;-78
2021/07/23 07:16:48;;;;;;;15.90;8.85;;;614.60;1996.80;;;;;;5038133;28;20132;-75
2021/07/23 07:19:14;;;;;;;11.70;9.85;;;614.70;1996.80;;;;;;5038519;28;20551;-78
2021/07/23 07:21:47;;;;;;;16.58;9.50;;;614.80;1996.80;;;;;;5039261;28;20041;-75
2021/07/23 07:24:13;;;;;;;11.60;9.20;;;614.80;1996.80;;;;;;5037605;28;20033;-74
2021/07/23 07:26:39;;;;;;;16.48;8.57;;;614.90;1971.20;;;;;;5035343;28;20077;-74
2021/07/23 07:29:05;;;;;;;13.88;10.07;;;615.00;1971.20;;;;;;5035596;28;20481;-77
2021/07/23 07:31:30;;;;;;;13.90;10.93;;;615.00;1945.60;;;;;;5035203;28;20393;-78
2021/07/23 07:33:56;;;;;;;18.65;12.18;;;615.10;1920.00;;;;;;5033743;28;20507;-77
2021/07/23 07:36:22;;;;;;;14.35;9.65;;;615.20;1920.00;;;;;;5033872;28;20129;-77
2021/07/23 07:38:48;;;;;;;9.98;8.75;;;615.30;1920.00;;;;;;5033088;28;20477;-77
2021/07/23 07:41:18;;;;;;;11.48;8.85;;;615.30;1920.00;;;;;;5033482;28;20393;-77
2021/07/23 07:43:43;;;;;;;15.32;9.48;;;640.00;1894.40;;;;;;5035099;28;20454;-78
2021/07/23 07:46:09;;;;;;;11.32;9.20;;;640.20;1920.00;;;;;;5033046;28;20045;-78
2021/07/23 07:48:35;;;;;;;12.52;8.63;;;640.30;1894.40;;;;;;5031026;28;20108;-76
2021/07/23 07:51:01;;;;;;;15.50;9.45;;;640.40;1868.80;;;;;;5033664;28;20022;-78
2021/07/23 07:53:27;;;;;;;15.85;8.88;;;640.60;1817.60;;;;;;5033928;28;20164;-76
2021/07/23 07:55:52;;;;;;;13.18;9.00;;;640.70;1792.00;;;;;;5033723;28;20049;-78
2021/07/23 07:58:18;;;;;;;10.60;8.23;;;640.80;1792.00;;;;;;5033037;28;20485;-78
2021/07/23 08:00:44;;;;;;;13.35;7.80;;;665.60;1817.60;;;;;;5032990;28;20033;-78
2021/07/23 08:03:10;;;;;;;11.07;8.18;;;665.80;1766.40;;;;;;5033492;28;20477;-75
2021/07/23 08:05:36;;;;;;;9.80;7.72;;;665.80;1740.80;;;;;;5033497;28;20056;-77
2021/07/23 08:08:04;;;;;;;14.55;8.75;;;665.90;1766.40;;;;;;5032950;28;20025;-77
2021/07/23 08:10:33;;;;;;;11.82;8.35;;;666.10;1715.20;;;;;;5034514;28;20071;-77
2021/07/23 08:12:59;;;;;;;10.68;9.10;;;666.20;1689.60;;;;;;5032028;28;20064;-77
2021/07/23 08:15:25;;;;;;;12.50;8.18;;;666.40;1740.80;;;;;;5032998;28;20488;-76
2021/07/23 08:17:52;;;;;;;15.63;9.90;;;666.50;1664.00;;;;;;5034598;28;20092;-78
2021/07/23 08:20:18;;;;;;;11.45;7.82;;;691.30;1664.00;;;;;;5034205;28;20108;-75
2021/07/23 08:22:45;;;;;;;9.10;7.15;;;691.40;1612.80;;;;;;5034093;28;20029;-76
2021/07/23 08:25:11;;;;;;;10.40;7.28;;;691.60;1664.00;;;;;;5032717;28;20409;-75
2021/07/23 08:27:37;;;;;;;10.40;7.50;;;691.60;1612.80;;;;;;5034084;28;20036;-77
2021/07/23 08:30:04;;;;;;;12.50;7.18;;;691.70;1638.40;;;;;;5034018;28;20150;-77
2021/07/23 08:32:36;;;;;;;17.38;8.00;;;691.80;1587.20;;;;;;5034038;28;20119;-78
2021/07/23 08:35:06;;;;;;;10.80;7.20;;;692.10;1612.80;;;;;;5034105;28;20033;-77
2021/07/23 08:37:33;;;;;;;12.25;7.10;;;716.80;1664.00;;;;;;5033727;28;20067;-76
2021/07/23 08:40:00;;;;;;;11.77;8.10;;;716.80;1587.20;;;;;;5034074;28;20021;-79
2021/07/23 08:42:30;;;;;;;8.77;7.35;;;716.90;1587.20;;;;;;5033935;28;20028;-77
2021/07/23 08:44:57;;;;;;;11.20;6.90;;;717.00;1536.00;;;;;;5033735;28;20037;-76
2021/07/23 08:47:24;;;;;;;9.50;7.20;;;717.20;1612.80;;;;;;5033775;28;20021;-79
2021/07/23 08:49:51;;;;;;;8.25;6.18;;;717.20;1536.00;;;;;;5033874;28;20021;-78
2021/07/23 08:52:18;;;;;;;7.88;6.38;;;717.20;1510.40;;;;;;5033088;28;20017;-77
2021/07/23 08:54:44;;;;;;;11.50;7.32;;;717.20;1510.40;;;;;;5033760;28;20029;-78
2021/07/23 08:57:11;;;;;;;12.10;7.00;;;717.30;1536.00;;;;;;5032103;28;20043;-77
2021/07/23 08:59:37;;;;;;;12.73;7.28;;;717.50;1459.20;;;;;;5035050;28;20033;-78
2021/07/23 09:02:04;;;;;;;15.30;7.72;;;717.40;1510.40;;;;;;5033637;28;20439;-77
2021/07/23 09:04:36;;;;;;;7.93;7.00;;;717.40;1510.40;;;;;;5034379;28;20068;-77
2021/07/23 09:07:20;;;;;;;10.88;6.07;;;717.40;1459.20;;;;;;5033939;28;20049;-76
2021/07/23 09:10:03;;;;;;;8.77;6.10;;;717.50;1459.20;;;;;;5036677;28;20151;-77
2021/07/23 09:12:50;;;;;;;8.25;6.47;;;717.70;1484.80;;;;;;5035945;28;20022;-77
2021/07/23 09:15:19;;;;;;;10.45;6.57;;;717.70;1459.20;;;;;;5033388;28;20022;-78
2021/07/23 09:17:45;;;;;;;8.77;7.47;;;742.50;1510.40;;;;;;5035681;28;20029;-76
2021/07/23 09:20:12;;;;;;;8.63;6.68;;;742.60;1408.00;;;;;;5035301;28;20022;-77
2021/07/23 09:22:46;;;;;;;8.45;6.25;;;742.60;1408.00;;;;;;5033360;28;20469;-77
2021/07/23 09:25:13;;;;;;;11.80;6.93;;;742.70;1459.20;;;;;;5033335;28;20048;-77
2021/07/23 09:27:40;;;;;;;8.25;6.60;;;742.70;1408.00;;;;;;5031992;28;20505;-78
2021/07/23 09:30:07;;;;;;;6.97;6.13;;;742.70;1484.80;;;;;;5033398;28;20034;-77
2021/07/23 09:32:36;;;;;;;10.02;6.70;;;742.80;1536.00;;;;;;5030210;28;20021;-79
2021/07/23 09:35:14;;;;;;;9.45;7.45;;;742.90;1459.20;;;;;;5033234;28;20108;-77
2021/07/23 09:37:56;;;;;;;12.38;6.63;;;743.00;1459.20;;;;;;5033388;28;20366;-79
2021/07/23 09:40:23;;;;;;;10.48;6.82;;;743.20;1408.00;;;;;;5033246;28;20146;-77
2021/07/23 09:42:59;;;;;;;8.70;6.45;;;743.30;1331.20;;;;;;5033113;28;20107;-77
2021/07/23 09:45:29;;;;;;;9.68;5.63;;;743.30;1331.20;;;;;;5033272;28;20044;-77
2021/07/23 09:48:14;;;;;;;9.50;6.30;;;743.30;1305.60;;;;;;5033136;28;20029;-78
2021/07/23 09:50:46;;;;;;;7.00;5.63;;;768.00;1280.00;;;;;;5033084;28;20584;-78
2021/07/23 09:53:15;;;;;;;11.70;6.07;;;768.00;1331.20;;;;;;5033001;28;20116;-77
2021/07/23 09:55:46;;;;;;;10.05;6.28;;;768.20;1305.60;;;;;;5033339;28;20025;-78
2021/07/23 09:58:13;;;;;;;6.18;4.90;;;768.20;1305.60;;;;;;5033045;28;20022;-77
2021/07/23 10:00:42;;;;;;;12.50;6.50;;;768.20;1305.60;;;;;;5033239;28;20033;-76
2021/07/23 10:03:13;;;;;;;11.60;6.25;;;768.40;1305.60;;;;;;5035512;28;20380;-78
2021/07/23 10:05:53;;;;;;;9.73;5.80;;;768.50;1305.60;;;;;;5038119;28;20030;-76
2021/07/23 10:08:27;;;;;;;11.07;6.20;;;768.50;1228.80;;;;;;5037148;28;20025;-76
2021/07/23 10:10:55;;;;;;;9.95;6.07;;;768.60;1203.20;;;;;;5036926;28;20029;-76
2021/07/23 10:13:27;;;;;;;9.25;5.20;;;768.60;1254.40;;;;;;5040318;28;20029;-77
2021/07/23 10:15:53;;;;;;;10.65;5.80;;;768.60;1177.60;;;;;;5036919;28;20559;-77
2021/07/23 10:18:21;;;;;;;8.38;5.80;;;768.50;1177.60;;;;;;5036752;28;20026;-78
2021/07/23 10:20:47;;;;;;;8.27;5.30;;;768.40;1177.60;;;;;;5035279;28;20041;-76
2021/07/23 10:23:23;;;;;;;9.77;6.38;;;768.20;1177.60;;;;;;5038090;28;20535;-77
2021/07/23 10:25:52;;;;;;;6.72;4.90;;;768.40;1177.60;;;;;;5036523;28;20054;-80
2021/07/23 10:28:36;;;;;;;7.18;5.32;;;768.50;1228.80;;;;;;5036976;28;20018;-77
2021/07/23 10:31:17;;;;;;;7.60;5.50;;;768.90;1203.20;;;;;;5036391;28;20022;-76
2021/07/23 10:33:53;;;;;;;8.40;6.07;;;768.90;1177.60;;;;;;5036797;28;20470;-76
2021/07/23 10:36:31;;;;;;;7.47;5.40;;;793.60;1254.40;;;;;;5036392;28;20025;-77
2021/07/23 10:39:07;;;;;;;9.15;6.07;;;768.90;1177.60;;;;;;5036673;28;20026;-78
2021/07/23 10:41:42;;;;;;;8.15;6.47;;;768.90;1228.80;;;;;;5036355;28;20110;-76
2021/07/23 10:44:33;;;;;;;7.82;6.45;;;768.90;1203.20;;;;;;5034686;28;20068;-78
2021/07/23 10:46:59;;;;;;;8.52;5.55;;;768.90;1331.20;;;;;;5034870;28;20400;-76
2021/07/23 10:49:31;;;;;;;10.93;6.28;;;793.60;1254.40;;;;;;5036242;28;20021;-77
2021/07/23 10:52:01;;;;;;;11.15;6.32;;;793.70;1331.20;;;;;;5036462;28;20119;-76
2021/07/23 10:54:28;;;;;;;8.90;6.15;;;793.80;1331.20;;;;;;5036281;28;20025;-78
2021/07/23 10:57:00;;;;;;;10.18;5.75;;;793.90;1356.80;;;;;;5037085;28;20029;-76
2021/07/23 10:59:41;;;;;;;6.82;5.30;;;793.90;1305.60;;;;;;5035813;28;20433;-77
2021/07/23 11:02:16;;;;;;;12.40;6.53;;;794.10;1331.20;;;;;;5035535;28;20026;-75
2021/07/23 11:04:43;;;;;;;7.00;5.85;;;794.00;1305.60;;;;;;5036234;28;20026;-75
2021/07/23 11:07:10;;;;;;;10.05;5.05;;;794.20;1254.40;;;;;;5034441;28;20029;-76
2021/07/23 11:09:37;;;;;;;6.18;5.57;;;794.20;1203.20;;;;;;5035616;28;20026;-74
2021/07/23 11:12:16;;;;;;;6.20;5.10;;;794.40;1254.40;;;;;;5034412;28;20112;-76
2021/07/23 11:14:42;;;;;;;7.30;4.43;;;794.50;1177.60;;;;;;5034643;28;20462;-77
2021/07/23 11:17:10;;;;;;;9.23;5.00;;;794.30;1049.60;;;;;;5034212;28;20485;-76
2021/07/23 11:19:36;;;;;;;7.57;5.22;;;794.40;1049.60;;;;;;5034399;28;20029;-76
2021/07/23 11:22:03;;;;;;;8.10;6.18;;;794.30;1100.80;;;;;;5035179;28;20384;-77
2021/07/23 11:24:36;;;;;;;10.77;5.72;;;794.30;1152.00;;;;;;5035228;28;20099;-76
2021/07/23 11:27:02;;;;;;;9.48;5.75;;;794.50;1152.00;;;;;;5043954;28;20041;-78
2021/07/23 11:29:37;;;;;;;7.43;5.43;;;819.30;1228.80;;;;;;5044908;28;20037;-79
2021/07/23 11:32:11;;;;;;;7.20;5.32;;;819.50;1203.20;;;;;;5046000;28;20029;-76
2021/07/23 11:34:41;;;;;;;8.65;5.25;;;819.60;1203.20;;;;;;5042063;28;20072;-77
2021/07/23 11:37:23;;;;;;;7.05;5.18;;;819.70;1152.00;;;;;;5042857;28;20024;-77
2021/07/23 11:39:50;;;;;;;10.60;5.40;;;819.90;1126.40;;;;;;5045787;28;20021;-76
2021/07/23 11:42:16;;;;;;;8.07;5.40;;;819.80;1152.00;;;;;;5039471;28;20022;-77
2021/07/23 11:45:01;;;;;;;8.50;5.95;;;820.00;1100.80;;;;;;5035561;28;20026;-77
2021/07/23 11:47:27;;;;;;;7.30;5.22;;;820.10;1100.80;;;;;;5035165;28;20029;-76
2021/07/23 11:49:54;;;;;;;13.68;5.53;;;844.90;1152.00;;;;;;5033474;28;20025;-77
2021/07/23 11:52:24;;;;;;;6.07;5.22;;;845.00;1075.20;;;;;;5035198;28;20030;-78
2021/07/23 11:55:00;;;;;;;7.45;5.80;;;844.80;1100.80;;;;;;5033921;28;20515;-75
2021/07/23 11:57:29;;;;;;;5.93;5.32;;;820.10;1024.00;;;;;;5034943;28;20397;-78
2021/07/23 11:59:56;;;;;;;9.52;5.88;;;820.10;1049.60;;;;;;5034730;28;20025;-78
2021/07/23 12:02:26;;;;;;;8.25;5.45;;;820.10;1075.20;;;;;;5034508;28;20052;-75
2021/07/23 12:05:09;;;;;;;7.10;6.00;;;820.00;1049.60;;;;;;5034756;28;20044;-78
2021/07/23 12:07:39;;;;;;;7.97;5.88;;;820.10;1049.60;;;;;;5034854;28;20017;-77
2021/07/23 12:10:13;;;;;;;7.70;5.32;;;844.80;1100.80;;;;;;5034804;28;20131;-77
2021/07/23 12:12:40;;;;;;;13.40;6.60;;;845.20;1152.00;;;;;;5034467;28;20096;-77